createdAt,value
2023-12-11T00:00:22.393Z,1.67
2023-12-11T00:02:49.324Z,2.60
2023-12-11T00:05:16.434Z,0.87
2023-12-11T00:07:43.394Z,8.43
2023-12-11T00:10:11.905Z,1.93
2023-12-11T00:12:39.008Z,3.47
2023-12-11T00:15:06.813Z,2.20
2023-12-11T00:17:34.070Z,2.20
2023-12-11T00:20:01.262Z,1.30
2023-12-11T00:22:28.195Z,0.90
2023-12-11T00:24:55.490Z,2.07
2023-12-11T00:27:23.779Z,1.93
2023-12-11T00:29:50.697Z,1.47
2023-12-11T00:32:17.624Z,1.40
2023-12-11T00:34:44.597Z,1.60
2023-12-11T00:37:11.675Z,2.40
2023-12-11T00:39:39.355Z,2.00
2023-12-11T00:42:06.432Z,1.00
2023-12-11T00:44:37.233Z,2.00
2023-12-11T00:47:05.580Z,2.67
2023-12-11T00:49:32.869Z,1.73
2023-12-11T00:52:00.894Z,2.67
2023-12-11T00:54:27.879Z,1.87
2023-12-11T00:56:54.811Z,1.20
2023-12-11T00:59:21.729Z,1.40
2023-12-11T01:01:50.875Z,3.57
2023-12-11T01:04:17.877Z,1.73
2023-12-11T01:06:44.948Z,1.97
2023-12-11T01:09:11.891Z,2.00
2023-12-11T01:11:39.413Z,2.17
2023-12-11T01:14:06.300Z,0.73
2023-12-11T01:16:33.267Z,2.33
2023-12-11T01:19:02.001Z,1.03
2023-12-11T01:21:29.061Z,1.87
2023-12-11T01:23:58.113Z,3.30
2023-12-11T01:26:25.209Z,2.97
2023-12-11T01:28:52.609Z,1.30
2023-12-11T01:31:19.592Z,1.20
2023-12-11T01:33:46.551Z,1.50
2023-12-11T01:36:14.929Z,1.70
2023-12-11T01:38:41.911Z,2.30
2023-12-11T01:41:08.800Z,0.67
2023-12-11T01:43:35.838Z,4.07
2023-12-11T01:46:06.257Z,2.47
2023-12-11T01:48:33.994Z,1.47
2023-12-11T01:51:01.451Z,6.87
2023-12-11T01:53:30.135Z,0.70
2023-12-11T01:55:57.300Z,2.20
2023-12-11T01:58:25.623Z,1.67
2023-12-11T02:00:52.895Z,3.67
2023-12-11T02:03:20.282Z,2.17
2023-12-11T02:05:47.351Z,1.30
2023-12-11T02:08:16.024Z,0.87
2023-12-11T02:10:45.431Z,1.07
2023-12-11T02:13:12.479Z,0.80
2023-12-11T02:15:40.849Z,0.73
2023-12-11T02:18:09.195Z,1.07
2023-12-11T02:20:36.172Z,0.87
2023-12-11T02:23:07.755Z,1.07
2023-12-11T02:25:36.714Z,0.30
2023-12-11T02:28:05.599Z,0.33
2023-12-11T02:30:38.707Z,0.80
2023-12-11T02:33:06.194Z,0.43
2023-12-11T02:35:33.461Z,0.90
2023-12-11T02:38:00.447Z,0.23
2023-12-11T02:40:27.404Z,0.30
2023-12-11T02:42:54.902Z,0.47
2023-12-11T02:45:23.177Z,0.60
2023-12-11T02:47:50.104Z,0.60
2023-12-11T02:50:17.177Z,0.70
2023-12-11T02:52:44.089Z,0.57
2023-12-11T02:55:11.033Z,0.90
2023-12-11T02:57:38.017Z,1.20
2023-12-11T03:00:06.383Z,0.60
2023-12-11T03:02:34.609Z,0.80
2023-12-11T03:05:01.592Z,0.80
2023-12-11T03:07:28.826Z,0.50
2023-12-11T03:09:55.946Z,0.97
2023-12-11T03:12:22.848Z,0.50
2023-12-11T03:14:49.853Z,0.73
2023-12-11T03:17:16.786Z,0.70
2023-12-11T03:19:45.639Z,0.37
2023-12-11T03:22:12.728Z,0.87
2023-12-11T03:24:39.680Z,0.30
2023-12-11T03:27:06.578Z,0.23
2023-12-11T03:29:33.455Z,0.37
2023-12-11T03:32:00.363Z,0.40
2023-12-11T03:34:27.305Z,0.73
2023-12-11T03:36:55.630Z,0.93
2023-12-11T03:39:22.566Z,0.70
2023-12-11T03:41:49.632Z,0.10
2023-12-11T03:44:16.544Z,1.90
2023-12-11T03:46:43.472Z,0.93
2023-12-11T03:49:10.432Z,0.57
2023-12-11T03:51:37.419Z,0.53
2023-12-11T03:54:05.618Z,0.23
2023-12-11T03:56:32.504Z,0.60
2023-12-11T03:58:59.384Z,0.57
2023-12-11T04:01:26.394Z,0.40
2023-12-11T04:03:53.404Z,0.63
2023-12-11T04:06:20.411Z,0.87
2023-12-11T04:08:47.387Z,1.40
2023-12-11T04:11:15.711Z,1.00
2023-12-11T04:13:42.700Z,1.63
2023-12-11T04:16:10.149Z,0.40
2023-12-11T04:18:40.855Z,0.60
2023-12-11T04:21:07.958Z,0.47
2023-12-11T04:23:35.123Z,0.83
2023-12-11T04:26:02.787Z,0.17
2023-12-11T04:28:31.116Z,1.50
2023-12-11T04:30:58.181Z,1.83
2023-12-11T04:33:25.275Z,0.20
2023-12-11T04:35:52.277Z,0.20
2023-12-11T04:38:19.159Z,0.50
2023-12-11T04:40:46.046Z,0.50
2023-12-11T04:43:13.116Z,0.20
2023-12-11T04:45:41.644Z,0.50
2023-12-11T04:48:08.728Z,0.77
2023-12-11T04:50:36.182Z,0.27
2023-12-11T04:53:03.113Z,1.00
2023-12-11T04:55:30.167Z,0.40
2023-12-11T04:57:57.086Z,0.50
2023-12-11T05:00:24.050Z,0.50
2023-12-11T05:02:52.321Z,0.93
2023-12-11T05:05:19.349Z,0.60
2023-12-11T05:07:46.247Z,0.40
2023-12-11T05:10:13.322Z,0.77
2023-12-11T05:12:40.397Z,0.57
2023-12-11T05:15:08.178Z,0.30
2023-12-11T05:17:35.515Z,0.30
2023-12-11T05:20:04.503Z,0.53
2023-12-11T05:22:31.494Z,0.50
2023-12-11T05:24:58.453Z,0.73
2023-12-11T05:27:25.383Z,0.30
2023-12-11T05:29:52.286Z,0.83
2023-12-11T05:32:19.179Z,0.30
2023-12-11T05:34:46.142Z,0.77
2023-12-11T05:37:14.481Z,0.40
2023-12-11T05:39:44.366Z,0.57
2023-12-11T05:42:14.641Z,2.60
2023-12-11T05:44:41.926Z,3.23
2023-12-11T05:47:08.799Z,1.07
2023-12-11T05:49:35.829Z,1.27
2023-12-11T05:52:02.931Z,1.80
2023-12-11T05:54:31.185Z,1.10
2023-12-11T05:56:58.318Z,2.37
2023-12-11T05:59:25.241Z,1.07
2023-12-11T06:01:52.408Z,1.17
2023-12-11T06:04:19.311Z,0.67
2023-12-11T06:06:46.240Z,0.67
2023-12-11T06:09:14.808Z,0.53
2023-12-11T06:11:43.802Z,1.33
2023-12-11T06:14:10.687Z,1.23
2023-12-11T06:16:37.579Z,0.40
2023-12-11T06:19:04.682Z,0.70
2023-12-11T06:21:31.796Z,0.77
2023-12-11T06:23:58.699Z,0.53
2023-12-11T06:26:27.365Z,1.63
2023-12-11T06:28:55.752Z,1.77
2023-12-11T06:31:23.137Z,0.93
2023-12-11T06:33:50.278Z,0.90
2023-12-11T06:36:17.310Z,0.67
2023-12-11T06:38:44.341Z,1.10
2023-12-11T06:41:11.233Z,0.40
2023-12-11T06:43:38.089Z,0.70
2023-12-11T06:46:06.852Z,0.83
2023-12-11T06:48:33.780Z,1.50
2023-12-11T06:51:00.698Z,0.63
2023-12-11T06:53:27.534Z,2.20
2023-12-11T06:55:54.422Z,1.17
2023-12-11T06:58:21.328Z,1.83
2023-12-11T07:00:48.727Z,1.73
2023-12-11T07:03:17.241Z,1.00
2023-12-11T07:05:44.976Z,2.53
2023-12-11T07:08:11.912Z,1.33
2023-12-11T07:10:39.816Z,1.00
2023-12-11T07:13:06.796Z,1.00
2023-12-11T07:15:34.548Z,2.00
2023-12-11T07:18:01.611Z,2.57
2023-12-11T07:20:30.616Z,2.13
2023-12-11T07:22:57.407Z,2.90
2023-12-11T07:25:25.084Z,1.80
2023-12-11T07:27:52.065Z,2.30
2023-12-11T07:30:18.960Z,2.23
2023-12-11T07:32:45.947Z,1.57
2023-12-11T07:35:12.984Z,2.43
2023-12-11T07:37:44.493Z,1.30
2023-12-11T07:40:12.454Z,2.53
2023-12-11T07:42:39.544Z,1.90
2023-12-11T07:45:07.499Z,4.23
2023-12-11T07:47:34.996Z,2.00
2023-12-11T07:50:02.696Z,2.40
2023-12-11T07:52:33.010Z,1.40
2023-12-11T07:55:01.382Z,1.90
2023-12-11T07:57:30.018Z,1.27
2023-12-11T07:59:57.208Z,2.20
2023-12-11T08:02:24.131Z,2.97
2023-12-11T08:04:51.348Z,3.47
2023-12-11T08:07:18.534Z,3.50
2023-12-11T08:09:45.683Z,3.53
2023-12-11T08:12:13.943Z,2.40
2023-12-11T08:14:40.820Z,3.00
2023-12-11T08:17:07.777Z,2.37
2023-12-11T08:19:35.070Z,2.53
2023-12-11T08:22:02.339Z,3.93
2023-12-11T08:24:29.420Z,4.33
2023-12-11T08:26:56.768Z,2.33
2023-12-11T08:29:25.484Z,1.90
2023-12-11T08:31:53.334Z,7.53
2023-12-11T08:34:21.438Z,3.43
2023-12-11T08:36:48.449Z,4.37
2023-12-11T08:39:15.371Z,3.73
2023-12-11T08:41:42.326Z,2.20
2023-12-11T08:44:09.335Z,2.40
2023-12-11T08:46:37.780Z,8.90
2023-12-11T08:49:05.012Z,3.97
2023-12-11T08:51:33.493Z,5.97
2023-12-11T08:54:00.463Z,6.67
2023-12-11T08:56:29.115Z,5.57
2023-12-11T08:58:56.195Z,1.87
2023-12-11T09:01:24.001Z,6.37
2023-12-11T09:03:52.479Z,3.83
2023-12-11T09:06:19.562Z,8.30
2023-12-11T09:08:46.533Z,2.83
2023-12-11T09:11:13.466Z,7.40
2023-12-11T09:13:41.965Z,5.77
2023-12-11T09:16:09.312Z,5.47
2023-12-11T09:18:36.885Z,1.70
2023-12-11T09:21:06.118Z,3.53
2023-12-11T09:23:33.069Z,4.23
2023-12-11T09:26:00.003Z,3.13
2023-12-11T09:28:31.817Z,3.07
2023-12-11T09:31:01.582Z,3.43
2023-12-11T09:33:28.601Z,1.53
2023-12-11T09:35:56.669Z,2.60
2023-12-11T09:38:24.927Z,4.87
2023-12-11T09:40:51.960Z,1.87
2023-12-11T09:43:20.463Z,1.37
2023-12-11T09:45:49.992Z,1.27
2023-12-11T09:48:17.215Z,1.67
2023-12-11T09:50:45.144Z,2.47
2023-12-11T09:53:12.259Z,1.40
2023-12-11T09:55:40.963Z,1.87
2023-12-11T09:58:09.226Z,1.77
2023-12-11T10:00:37.163Z,0.97
2023-12-11T10:03:06.941Z,1.67
2023-12-11T10:05:36.211Z,2.33
2023-12-11T10:08:03.484Z,3.57
2023-12-11T10:10:39.464Z,3.63
2023-12-11T10:13:07.975Z,5.67
2023-12-11T10:15:36.674Z,2.87
2023-12-11T10:18:06.529Z,2.97
2023-12-11T10:20:34.883Z,1.97
2023-12-11T10:23:15.103Z,1.73
2023-12-11T10:25:44.126Z,1.33
2023-12-11T10:28:14.211Z,2.93
2023-12-11T10:30:52.332Z,2.63
2023-12-11T10:33:19.906Z,2.10
2023-12-11T10:35:47.701Z,1.73
2023-12-11T10:38:22.242Z,2.53
2023-12-11T10:40:50.576Z,2.17
2023-12-11T10:43:19.606Z,1.90
2023-12-11T10:45:49.847Z,2.50
2023-12-11T10:48:18.700Z,1.23
2023-12-11T10:50:46.978Z,2.23
2023-12-11T10:53:13.971Z,2.57
2023-12-11T10:55:41.367Z,2.10
2023-12-11T10:58:11.732Z,2.47
2023-12-11T11:00:40.924Z,2.40
2023-12-11T11:03:12.024Z,2.87
2023-12-11T11:05:39.717Z,3.57
2023-12-11T11:08:12.651Z,5.67
2023-12-11T11:10:45.873Z,5.37
2023-12-11T11:13:20.529Z,4.67
2023-12-11T11:15:54.269Z,4.30
2023-12-11T11:18:21.753Z,4.90
2023-12-11T11:21:11.635Z,3.47
2023-12-11T11:23:43.515Z,1.30
2023-12-11T11:26:34.534Z,2.47
2023-12-11T11:29:01.796Z,1.37
2023-12-11T11:31:53.306Z,6.10
2023-12-11T11:34:46.017Z,2.53
2023-12-11T11:37:19.180Z,4.30
2023-12-11T11:40:00.010Z,3.43
2023-12-11T11:42:28.357Z,2.57
2023-12-11T11:44:57.543Z,2.40
2023-12-11T11:47:26.089Z,4.40
2023-12-11T11:49:54.507Z,3.93
2023-12-11T11:52:26.346Z,4.47
2023-12-11T11:54:57.871Z,5.43
2023-12-11T11:57:28.205Z,1.37
2023-12-11T11:59:57.202Z,2.80
2023-12-11T12:02:25.698Z,2.10
2023-12-11T12:04:52.807Z,2.60
2023-12-11T12:07:19.928Z,2.60
2023-12-11T12:09:53.132Z,3.40
2023-12-11T12:12:20.196Z,3.83
2023-12-11T12:14:47.613Z,3.17
2023-12-11T12:17:14.489Z,5.80
2023-12-11T12:19:42.909Z,5.30
2023-12-11T12:22:14.380Z,3.90
2023-12-11T12:24:41.739Z,4.73
2023-12-11T12:27:12.502Z,3.73
2023-12-11T12:29:40.925Z,5.13
2023-12-11T12:32:10.040Z,3.90
2023-12-11T12:34:39.186Z,3.57
2023-12-11T12:37:08.290Z,4.33
2023-12-11T12:39:36.400Z,6.13
2023-12-11T12:42:03.740Z,2.93
2023-12-11T12:44:31.032Z,4.60
2023-12-11T12:47:04.188Z,5.23
2023-12-11T12:49:35.976Z,3.53
2023-12-11T12:52:03.090Z,3.37
2023-12-11T12:54:48.628Z,4.87
2023-12-11T12:57:17.239Z,2.93
2023-12-11T12:59:44.209Z,4.80
2023-12-11T13:02:12.732Z,5.83
2023-12-11T13:04:49.876Z,4.97
2023-12-11T13:07:18.015Z,4.77
2023-12-11T13:09:47.547Z,2.80
2023-12-11T13:12:17.089Z,3.90
2023-12-11T13:14:44.078Z,3.63
2023-12-11T13:17:10.969Z,2.27
2023-12-11T13:19:38.219Z,4.90
2023-12-11T13:22:09.302Z,4.07
2023-12-11T13:24:36.214Z,2.97
2023-12-11T13:27:05.079Z,2.43
2023-12-11T13:29:32.124Z,4.67
2023-12-11T13:32:00.734Z,3.50
2023-12-11T13:34:27.877Z,4.63
2023-12-11T13:36:55.190Z,4.90
2023-12-11T13:39:22.253Z,3.07
2023-12-11T13:41:49.288Z,5.23
2023-12-11T13:44:17.608Z,5.93
2023-12-11T13:46:44.558Z,5.53
2023-12-11T13:49:11.559Z,4.60
2023-12-11T13:51:38.535Z,3.50
2023-12-11T13:54:05.545Z,6.43
2023-12-11T13:56:34.408Z,3.90
2023-12-11T13:59:01.418Z,4.40
2023-12-11T14:01:30.028Z,3.70
2023-12-11T14:03:57.094Z,3.67
2023-12-11T14:06:24.456Z,5.37
2023-12-11T14:08:53.106Z,4.03
2023-12-11T14:11:20.056Z,5.17
2023-12-11T14:13:47.065Z,3.40
2023-12-11T14:16:14.030Z,4.03
2023-12-11T14:18:42.721Z,6.27
2023-12-11T14:21:11.031Z,3.63
2023-12-11T14:23:39.261Z,4.83
2023-12-11T14:26:06.534Z,7.63
2023-12-11T14:28:33.422Z,6.07
2023-12-11T14:31:00.315Z,9.27
2023-12-11T14:33:27.319Z,6.83
2023-12-11T14:35:55.611Z,6.07
2023-12-11T14:38:22.506Z,6.03
2023-12-11T14:40:49.419Z,4.47
2023-12-11T14:43:16.612Z,4.93
2023-12-11T14:45:43.710Z,4.67
2023-12-11T14:48:10.682Z,6.53
2023-12-11T14:50:37.831Z,4.50
2023-12-11T14:53:06.175Z,6.57
2023-12-11T14:55:35.249Z,6.83
2023-12-11T14:58:04.040Z,5.50
2023-12-11T15:00:31.019Z,7.23
2023-12-11T15:02:58.122Z,6.57
2023-12-11T15:05:25.371Z,7.03
2023-12-11T15:07:52.230Z,7.60
2023-12-11T15:10:20.634Z,4.57
2023-12-11T15:12:47.605Z,6.23
2023-12-11T15:15:15.864Z,6.63
2023-12-11T15:17:42.923Z,6.07
2023-12-11T15:20:11.525Z,6.57
2023-12-11T15:22:38.742Z,4.77
2023-12-11T15:25:08.922Z,4.77
2023-12-11T15:27:37.285Z,5.57
2023-12-11T15:30:07.864Z,5.30
2023-12-11T15:32:34.869Z,4.57
2023-12-11T15:35:02.334Z,6.57
2023-12-11T15:37:29.704Z,5.70
2023-12-11T15:39:56.797Z,5.87
2023-12-11T15:42:23.702Z,6.40
2023-12-11T15:44:52.015Z,5.60
2023-12-11T15:47:18.949Z,6.43
2023-12-11T15:49:46.554Z,7.80
2023-12-11T15:52:13.582Z,9.13
2023-12-11T15:54:44.513Z,7.37
2023-12-11T15:57:13.408Z,8.37
2023-12-11T15:59:40.387Z,8.97
2023-12-11T16:02:08.969Z,7.17
2023-12-11T16:04:36.036Z,9.47
2023-12-11T16:07:03.286Z,8.37
2023-12-11T16:09:30.313Z,7.77
2023-12-11T16:11:57.477Z,8.47
2023-12-11T16:14:24.367Z,6.90
2023-12-11T16:16:51.369Z,10.23
2023-12-11T16:19:19.711Z,7.20
2023-12-11T16:21:47.055Z,8.27
2023-12-11T16:24:14.113Z,8.90
2023-12-11T16:26:41.020Z,5.77
2023-12-11T16:29:07.916Z,10.60
2023-12-11T16:31:35.066Z,10.27
2023-12-11T16:34:04.225Z,10.03
2023-12-11T16:36:32.731Z,7.67
2023-12-11T16:38:59.701Z,7.90
2023-12-11T16:41:27.157Z,9.30
2023-12-11T16:43:54.954Z,7.07
2023-12-11T16:46:22.294Z,7.57
2023-12-11T16:48:49.523Z,7.13
2023-12-11T16:51:16.616Z,7.17
2023-12-11T16:53:46.861Z,5.47
2023-12-11T16:56:14.226Z,4.87
2023-12-11T16:58:42.553Z,4.53
2023-12-11T17:01:09.798Z,5.57
2023-12-11T17:03:38.068Z,8.30
2023-12-11T17:06:05.542Z,4.73
2023-12-11T17:08:32.466Z,4.57
2023-12-11T17:11:00.777Z,6.60
2023-12-11T17:13:28.787Z,6.17
2023-12-11T17:15:55.742Z,5.80
2023-12-11T17:18:23.746Z,5.50
2023-12-11T17:20:50.736Z,6.23
2023-12-11T17:23:17.743Z,8.43
2023-12-11T17:25:45.335Z,11.17
2023-12-11T17:28:13.679Z,7.30
2023-12-11T17:30:41.213Z,7.93
2023-12-11T17:33:08.117Z,8.23
2023-12-11T17:35:35.114Z,6.87
2023-12-11T17:38:02.026Z,6.43
2023-12-11T17:40:28.960Z,6.47
2023-12-11T17:42:55.929Z,5.83
2023-12-11T17:45:26.462Z,5.83
2023-12-11T17:47:55.678Z,6.70
2023-12-11T17:50:22.707Z,6.27
2023-12-11T17:52:49.596Z,7.57
2023-12-11T17:55:16.716Z,7.20
2023-12-11T17:57:43.776Z,7.47
2023-12-11T18:00:11.988Z,7.70
2023-12-11T18:02:40.284Z,9.10
2023-12-11T18:05:07.881Z,6.43
2023-12-11T18:07:35.045Z,5.37
2023-12-11T18:10:02.309Z,7.33
2023-12-11T18:12:29.293Z,8.50
2023-12-11T18:14:56.346Z,6.53
2023-12-11T18:17:23.281Z,6.90
2023-12-11T18:19:51.687Z,7.20
2023-12-11T18:22:18.732Z,8.23
2023-12-11T18:24:45.662Z,7.20
2023-12-11T18:27:12.606Z,6.87
2023-12-11T18:29:39.493Z,6.23
2023-12-11T18:32:07.027Z,7.60
2023-12-11T18:34:43.026Z,15.13
2023-12-11T18:37:19.859Z,16.23
2023-12-11T18:39:46.841Z,28.90
2023-12-11T18:42:13.935Z,20.67
2023-12-11T18:44:43.379Z,15.33
2023-12-11T18:47:10.340Z,11.60
2023-12-11T18:49:41.272Z,11.03
2023-12-11T18:52:10.104Z,8.00
2023-12-11T18:54:38.430Z,7.20
2023-12-11T18:57:05.742Z,4.23
2023-12-11T18:59:32.769Z,6.63
2023-12-11T19:01:59.846Z,4.90
2023-12-11T19:04:26.961Z,4.83
2023-12-11T19:06:53.985Z,5.37
2023-12-11T19:09:20.921Z,7.03
2023-12-11T19:11:52.003Z,11.70
2023-12-11T19:14:18.953Z,9.27
2023-12-11T19:16:45.934Z,8.90
2023-12-11T19:19:13.028Z,11.13
2023-12-11T19:21:39.962Z,9.83
2023-12-11T19:24:08.720Z,5.67
2023-12-11T19:26:38.540Z,6.77
2023-12-11T19:29:06.872Z,6.13
2023-12-11T19:31:34.034Z,8.33
2023-12-11T19:34:01.088Z,6.33
2023-12-11T19:36:28.021Z,7.53
2023-12-11T19:38:54.930Z,5.17
2023-12-11T19:41:22.242Z,5.63
2023-12-11T19:43:49.154Z,9.33
2023-12-11T19:46:17.414Z,8.43
2023-12-11T19:48:44.515Z,6.83
2023-12-11T19:51:13.031Z,7.10
2023-12-11T19:53:39.989Z,9.00
2023-12-11T19:56:07.794Z,7.83
2023-12-11T19:58:34.803Z,8.37
2023-12-11T20:01:01.924Z,8.60
2023-12-11T20:03:30.266Z,8.33
2023-12-11T20:05:57.218Z,19.17
2023-12-11T20:08:24.123Z,18.10
2023-12-11T20:10:51.015Z,13.00
2023-12-11T20:13:18.007Z,23.77
2023-12-11T20:15:44.986Z,15.90
2023-12-11T20:18:14.294Z,13.97
2023-12-11T20:20:42.806Z,11.67
2023-12-11T20:23:09.761Z,12.20
2023-12-11T20:25:36.789Z,11.80
2023-12-11T20:28:03.834Z,10.40
2023-12-11T20:30:30.772Z,9.10
2023-12-11T20:32:57.743Z,9.77
2023-12-11T20:35:24.702Z,10.27
2023-12-11T20:37:52.917Z,13.80
2023-12-11T20:40:19.875Z,11.77
2023-12-11T20:42:47.340Z,11.63
2023-12-11T20:45:14.800Z,10.93
2023-12-11T20:47:41.919Z,12.07
2023-12-11T20:50:12.160Z,15.57
2023-12-11T20:52:39.181Z,11.73
2023-12-11T20:55:08.252Z,9.73
2023-12-11T20:57:35.433Z,11.37
2023-12-11T21:00:06.890Z,8.90
2023-12-11T21:02:33.804Z,12.57
2023-12-11T21:05:01.662Z,9.97
2023-12-11T21:07:28.896Z,10.70
2023-12-11T21:09:55.968Z,7.20
2023-12-11T21:12:24.240Z,7.60
2023-12-11T21:14:51.317Z,9.70
2023-12-11T21:17:18.551Z,7.23
2023-12-11T21:19:45.889Z,8.13
2023-12-11T21:22:12.914Z,7.00
2023-12-11T21:24:39.955Z,9.00
2023-12-11T21:27:06.934Z,8.90
2023-12-11T21:29:35.333Z,7.77
2023-12-11T21:32:02.304Z,8.80
2023-12-11T21:34:29.532Z,7.43
2023-12-11T21:36:56.576Z,9.27
2023-12-11T21:39:23.761Z,9.93
2023-12-11T21:41:50.685Z,10.30
2023-12-11T21:44:17.592Z,10.17
2023-12-11T21:46:46.818Z,10.43
2023-12-11T21:49:15.922Z,9.50
2023-12-11T21:51:42.855Z,7.33
2023-12-11T21:54:09.777Z,7.53
2023-12-11T21:56:36.669Z,6.80
2023-12-11T21:59:03.686Z,6.30
2023-12-11T22:01:30.802Z,6.50
2023-12-11T22:03:59.115Z,7.00
2023-12-11T22:06:26.053Z,4.63
2023-12-11T22:08:53.100Z,7.37
2023-12-11T22:11:20.102Z,6.93
2023-12-11T22:13:47.147Z,8.63
2023-12-11T22:16:15.590Z,7.17
2023-12-11T22:18:43.368Z,6.73
2023-12-11T22:21:11.628Z,6.20
2023-12-11T22:23:38.535Z,6.90
2023-12-11T22:26:05.530Z,8.40
2023-12-11T22:28:33.002Z,6.57
2023-12-11T22:31:00.617Z,7.40
2023-12-11T22:33:27.595Z,4.73
2023-12-11T22:35:54.500Z,5.50
2023-12-11T22:38:22.692Z,5.83
2023-12-11T22:40:49.816Z,6.80
2023-12-11T22:43:16.928Z,6.97
2023-12-11T22:45:43.852Z,4.93
2023-12-11T22:48:11.390Z,4.53
2023-12-11T22:50:38.463Z,5.63
2023-12-11T22:53:05.375Z,7.20
2023-12-11T22:55:33.618Z,6.67
2023-12-11T22:58:09.881Z,5.33
2023-12-11T23:00:42.817Z,7.00
2023-12-11T23:03:09.748Z,5.87
2023-12-11T23:05:36.747Z,6.57
2023-12-11T23:08:04.005Z,4.80
2023-12-11T23:10:30.964Z,3.87
2023-12-11T23:12:59.261Z,6.80
2023-12-11T23:15:26.232Z,8.90
2023-12-11T23:17:53.229Z,6.73
2023-12-11T23:20:20.137Z,5.03
2023-12-11T23:22:47.608Z,7.80
2023-12-11T23:25:14.667Z,5.60
2023-12-11T23:27:42.611Z,5.10
2023-12-11T23:30:11.363Z,5.40
2023-12-11T23:32:38.430Z,6.07
2023-12-11T23:35:05.902Z,3.83
2023-12-11T23:37:33.001Z,5.97
2023-12-11T23:40:00.584Z,4.13
2023-12-11T23:42:27.659Z,6.47
2023-12-11T23:44:54.522Z,6.33
2023-12-11T23:47:22.828Z,4.57
2023-12-11T23:49:50.277Z,6.17
2023-12-11T23:52:17.356Z,5.53
2023-12-11T23:54:44.254Z,4.60
2023-12-11T23:57:11.135Z,3.80
2023-12-11T23:59:38.182Z,6.43
